Time,TemperatureF,DewpointF,PressureIn,WindDirection,WindDirectionDegrees,WindSpeedMPH,WindSpeedGustMPH,Humidity,HourlyPrecipIn,Conditions,Clouds,dailyrainin,SoftwareType,DateUTC
2013-02-16 00:03:00,28.9,9.3,30.36,NW,315,0.0,0.0,43,0.00,,SKC,0.00,VWS V14.01,2013-02-16 06:03:00,
2013-02-16 00:08:00,28.8,9.1,30.36,WSW,248,0.9,3.6,43,0.00,,SKC,0.00,VWS V14.01,2013-02-16 06:08:00,
2013-02-16 00:13:00,28.6,8.9,30.36,SSW,202,0.0,0.0,43,0.00,,SKC,0.00,VWS V14.01,2013-02-16 06:13:00,
2013-02-16 00:18:00,28.6,8.9,30.36,NE,45,2.5,9.8,43,0.00,,SKC,0.00,VWS V14.01,2013-02-16 06:18:00,
2013-02-16 00:23:00,28.6,8.9,30.36,North,0,2.5,9.8,43,0.00,,SKC,0.00,VWS V14.01,2013-02-16 06:23:00,
2013-02-16 00:28:00,28.4,9.3,30.36,NNE,22,1.6,6.3,44,0.00,,SKC,0.00,VWS V14.01,2013-02-16 06:28:00,
2013-02-16 00:33:00,28.2,9.1,30.36,West,270,1.1,4.5,44,0.00,,SKC,0.00,VWS V14.01,2013-02-16 06:33:00,
2013-02-16 00:38:00,28.0,8.9,30.36,NE,45,3.8,15.2,44,0.00,,SKC,0.00,VWS V14.01,2013-02-16 06:38:00,
2013-02-16 00:43:00,27.9,8.8,30.36,SE,135,2.7,10.7,44,0.00,,SKC,0.00,VWS V14.01,2013-02-16 06:43:00,
2013-02-16 00:48:00,27.7,8.6,30.36,North,0,2.7,10.7,44,0.00,,SKC,0.00,VWS V14.01,2013-02-16 06:48:00,
2013-02-16 00:53:00,27.5,8.5,30.36,NE,45,2.7,10.7,44,0.00,,SKC,0.00,VWS V14.01,2013-02-16 06:53:00,
2013-02-16 00:58:00,27.5,8.5,30.36,WSW,248,3.6,14.3,44,0.00,,SKC,0.00,VWS V14.01,2013-02-16 06:58:00,
2013-02-16 01:03:00,27.5,8.5,30.36,ESE,112,2.9,11.6,44,0.00,,SKC,0.00,VWS V14.01,2013-02-16 07:03:00,
2013-02-16 01:08:00,27.3,8.3,30.36,WSW,248,2.9,11.6,44,0.00,,SKC,0.00,VWS V14.01,2013-02-16 07:08:00,
2013-02-16 01:13:00,27.0,8.0,30.36,WNW,292,1.1,4.5,44,0.00,,SKC,0.00,VWS V14.01,2013-02-16 07:13:00,
2013-02-16 01:18:00,26.8,7.8,30.36,WSW,248,0.0,0.0,44,0.00,,SKC,0.00,VWS V14.01,2013-02-16 07:18:00,
2013-02-16 01:23:00,26.6,8.1,30.33,WNW,292,2.7,10.7,45,0.00,,SKC,0.00,VWS V14.01,2013-02-16 07:23:00,
2013-02-16 01:28:00,26.4,8.0,30.33,NNW,338,2.2,9.0,45,0.00,,SKC,0.00,VWS V14.01,2013-02-16 07:28:00,
2013-02-16 01:33:00,26.2,7.8,30.33,WNW,292,1.6,6.3,45,0.00,,SKC,0.00,VWS V14.01,2013-02-16 07:33:00,
2013-02-16 01:38:00,26.2,7.8,30.36,North,0,2.0,8.1,45,0.00,,SKC,0.00,VWS V14.01,2013-02-16 07:38:00,
2013-02-16 01:43:00,26.2,7.8,30.36,North,0,3.6,14.3,45,0.00,,SKC,0.00,VWS V14.01,2013-02-16 07:43:00,
2013-02-16 01:48:00,26.2,7.8,30.36,East,90,1.3,5.4,45,0.00,,SKC,0.00,VWS V14.01,2013-02-16 07:48:00,
2013-02-16 01:53:00,26.1,7.6,30.33,WNW,292,2.0,8.1,45,0.00,,SKC,0.00,VWS V14.01,2013-02-16 07:53:00,
2013-02-16 01:58:00,26.1,7.6,30.33,West,270,1.1,4.5,45,0.00,,SKC,0.00,VWS V14.01,2013-02-16 07:58:00,
2013-02-16 02:03:00,25.9,8.0,30.33,NW,315,3.1,12.5,46,0.00,,SKC,0.00,VWS V14.01,2013-02-16 08:03:00,
2013-02-16 02:08:00,25.9,8.0,30.36,North,0,2.5,9.8,46,0.00,,SKC,0.00,VWS V14.01,2013-02-16 08:08:00,
2013-02-16 02:13:00,25.5,7.6,30.36,East,90,2.5,9.8,46,0.00,,SKC,0.00,VWS V14.01,2013-02-16 08:13:00,
2013-02-16 02:18:00,25.5,7.6,30.36,NW,315,2.7,10.7,46,0.00,,SKC,0.00,VWS V14.01,2013-02-16 08:18:00,
2013-02-16 02:23:00,25.5,8.1,30.36,SSE,158,1.6,6.3,47,0.00,,SKC,0.00,VWS V14.01,2013-02-16 08:23:00,
2013-02-16 02:28:00,25.5,8.1,30.36,SE,135,2.2,9.0,47,0.00,,SKC,0.00,VWS V14.01,2013-02-16 08:28:00,
2013-02-16 02:33:00,25.3,7.9,30.36,WNW,292,3.8,15.2,47,0.00,,SKC,0.00,VWS V14.01,2013-02-16 08:33:00,
2013-02-16 02:38:00,25.5,8.1,30.36,WNW,292,5.8,23.3,47,0.00,,SKC,0.00,VWS V14.01,2013-02-16 08:38:00,
2013-02-16 02:43:00,25.5,8.1,30.36,NW,315,3.6,14.3,47,0.00,,SKC,0.00,VWS V14.01,2013-02-16 08:43:00,
2013-02-16 02:48:00,25.3,7.5,30.36,WSW,248,2.5,9.8,46,0.00,,SKC,0.00,VWS V14.01,2013-02-16 08:48:00,
2013-02-16 02:53:00,25.3,7.5,30.36,SW,225,1.3,5.4,46,0.00,,SKC,0.00,VWS V14.01,2013-02-16 08:53:00,
2013-02-16 02:58:00,25.3,7.0,30.36,NE,45,2.7,10.7,45,0.00,,SKC,0.00,VWS V14.01,2013-02-16 08:58:00,
2013-02-16 03:03:00,25.3,7.0,30.36,WNW,292,2.9,11.6,45,0.00,,SKC,0.00,VWS V14.01,2013-02-16 09:03:00,
2013-02-16 03:08:00,25.0,6.7,30.36,North,0,0.0,0.0,45,0.00,,SKC,0.00,VWS V14.01,2013-02-16 09:08:00,
2013-02-16 03:13:00,24.6,6.8,30.36,West,270,0.0,0.0,46,0.00,,SKC,0.00,VWS V14.01,2013-02-16 09:13:00,
2013-02-16 03:18:00,24.4,6.2,30.36,WNW,292,1.1,4.5,45,0.00,,SKC,0.00,VWS V14.01,2013-02-16 09:18:00,
2013-02-16 03:23:00,24.1,6.3,30.33,WNW,292,2.2,9.0,46,0.00,,SKC,0.00,VWS V14.01,2013-02-16 09:23:00,
2013-02-16 03:28:00,24.1,6.3,30.33,WSW,248,1.6,6.3,46,0.00,,SKC,0.00,VWS V14.01,2013-02-16 09:28:00,
2013-02-16 03:33:00,23.9,6.1,30.33,West,270,3.1,12.5,46,0.00,,SKC,0.00,VWS V14.01,2013-02-16 09:33:00,
2013-02-16 03:38:00,23.7,6.4,30.33,West,270,0.9,3.6,47,0.00,,SKC,0.00,VWS V14.01,2013-02-16 09:38:00,
2013-02-16 03:43:00,23.7,6.4,30.33,NW,315,2.5,9.8,47,0.00,,SKC,0.00,VWS V14.01,2013-02-16 09:43:00,
2013-02-16 03:48:00,23.7,6.4,30.33,South,180,2.7,10.7,47,0.00,,SKC,0.00,VWS V14.01,2013-02-16 09:48:00,
2013-02-16 03:53:00,23.9,6.6,30.33,NNE,22,2.5,9.8,47,0.00,,SKC,0.00,VWS V14.01,2013-02-16 09:53:00,
2013-02-16 03:58:00,23.7,6.4,30.33,NNW,338,1.6,6.3,47,0.00,,SKC,0.00,VWS V14.01,2013-02-16 09:58:00,
2013-02-16 04:03:00,23.7,6.4,30.33,North,0,2.5,9.8,47,0.00,,SKC,0.00,VWS V14.01,2013-02-16 10:03:00,
2013-02-16 04:08:00,23.5,6.3,30.36,West,270,1.3,5.4,47,0.00,,SKC,0.00,VWS V14.01,2013-02-16 10:08:00,
2013-02-16 04:13:00,23.4,6.1,30.36,SSE,158,0.0,0.0,47,0.00,,SKC,0.00,VWS V14.01,2013-02-16 10:13:00,
2013-02-16 04:18:00,23.0,5.8,30.36,WSW,248,0.0,0.0,47,0.00,,SKC,0.00,VWS V14.01,2013-02-16 10:18:00,
2013-02-16 04:23:00,22.8,5.6,30.36,WSW,248,0.0,0.0,47,0.00,,SKC,0.00,VWS V14.01,2013-02-16 10:23:00,
2013-02-16 04:28:00,22.6,5.5,30.36,WSW,248,0.0,0.0,47,0.00,,SKC,0.00,VWS V14.01,2013-02-16 10:28:00,
2013-02-16 04:33:00,22.6,5.9,30.36,West,270,0.0,0.0,48,0.00,,SKC,0.00,VWS V14.01,2013-02-16 10:33:00,
2013-02-16 04:38:00,22.5,5.8,30.33,WSW,248,1.1,4.5,48,0.00,,SKC,0.00,VWS V14.01,2013-02-16 10:38:00,
2013-02-16 04:43:00,22.5,5.8,30.33,WNW,292,0.0,0.0,48,0.00,,SKC,0.00,VWS V14.01,2013-02-16 10:43:00,
2013-02-16 04:48:00,22.5,5.8,30.33,WNW,292,0.0,0.0,48,0.00,,SKC,0.00,VWS V14.01,2013-02-16 10:48:00,
2013-02-16 04:53:00,22.3,6.0,30.36,NW,315,0.0,0.0,49,0.00,,SKC,0.00,VWS V14.01,2013-02-16 10:53:00,
2013-02-16 04:58:00,21.9,5.7,30.36,NW,315,0.0,0.0,49,0.00,,SKC,0.00,VWS V14.01,2013-02-16 10:58:00,
2013-02-16 05:03:00,21.9,5.7,30.36,NW,315,0.0,0.0,49,0.00,,SKC,0.00,VWS V14.01,2013-02-16 11:03:00,
2013-02-16 05:08:00,21.9,5.7,30.36,NW,315,0.0,0.0,49,0.00,,SKC,0.00,VWS V14.01,2013-02-16 11:08:00,
2013-02-16 05:13:00,21.7,6.0,30.36,NW,315,0.0,0.0,50,0.00,,SKC,0.00,VWS V14.01,2013-02-16 11:13:00,
2013-02-16 05:18:00,21.7,6.0,30.36,NW,315,0.0,0.0,50,0.00,,SKC,0.00,VWS V14.01,2013-02-16 11:18:00,
2013-02-16 05:23:00,21.7,6.0,30.36,NW,315,0.0,0.0,50,0.00,,SKC,0.00,VWS V14.01,2013-02-16 11:23:00,
2013-02-16 05:28:00,21.6,5.8,30.36,NW,315,0.0,0.0,50,0.00,,SKC,0.00,VWS V14.01,2013-02-16 11:28:00,
2013-02-16 05:33:00,21.4,5.6,30.36,NW,315,0.0,0.0,50,0.00,,SKC,0.00,VWS V14.01,2013-02-16 11:33:00,
2013-02-16 05:38:00,21.4,6.1,30.36,WSW,248,1.1,4.5,51,0.00,,SKC,0.00,VWS V14.01,2013-02-16 11:38:00,
2013-02-16 05:43:00,21.6,6.7,30.36,WSW,248,1.1,4.5,52,0.00,,SKC,0.00,VWS V14.01,2013-02-16 11:43:00,
2013-02-16 05:48:00,21.6,6.7,30.36,WSW,248,1.1,4.5,52,0.00,,SKC,0.00,VWS V14.01,2013-02-16 11:48:00,
2013-02-16 05:53:00,21.4,6.5,30.33,West,270,0.0,0.0,52,0.00,,SKC,0.00,VWS V14.01,2013-02-16 11:53:00,
2013-02-16 05:58:00,21.4,6.5,30.33,West,270,2.9,11.6,52,0.00,,SKC,0.00,VWS V14.01,2013-02-16 11:58:00,
2013-02-16 06:03:00,21.4,6.5,30.33,NW,315,2.5,9.8,52,0.00,,SKC,0.00,VWS V14.01,2013-02-16 12:03:00,
2013-02-16 06:08:00,21.2,6.8,30.33,NW,315,2.5,9.8,53,0.00,,SKC,0.00,VWS V14.01,2013-02-16 12:08:00,
2013-02-16 06:13:00,21.2,6.8,30.33,NW,315,2.5,9.8,53,0.00,,SKC,0.00,VWS V14.01,2013-02-16 12:13:00,
2013-02-16 06:18:00,21.0,6.6,30.33,NW,315,2.5,9.8,53,0.00,,SKC,0.00,VWS V14.01,2013-02-16 12:18:00,
2013-02-16 06:23:00,20.8,6.4,30.36,NW,315,2.5,9.8,53,0.00,,SKC,0.00,VWS V14.01,2013-02-16 12:23:00,
2013-02-16 06:28:00,20.7,6.2,30.36,NW,315,2.5,9.8,53,0.00,,SKC,0.00,VWS V14.01,2013-02-16 12:28:00,
2013-02-16 06:33:00,20.7,6.2,30.36,NW,315,2.5,9.8,53,0.00,,SKC,0.00,VWS V14.01,2013-02-16 12:33:00,
2013-02-16 06:38:00,20.5,6.1,30.36,WSW,248,0.0,0.0,53,0.00,,SKC,0.00,VWS V14.01,2013-02-16 12:38:00,
2013-02-16 06:43:00,20.7,6.2,30.36,WSW,248,0.0,0.0,53,0.00,,SKC,0.00,VWS V14.01,2013-02-16 12:43:00,
2013-02-16 06:48:00,20.7,6.2,30.36,WSW,248,0.0,0.0,53,0.00,,SKC,0.00,VWS V14.01,2013-02-16 12:48:00,
2013-02-16 06:53:00,20.7,6.2,30.36,WSW,248,0.0,0.0,53,0.00,,SKC,0.00,VWS V14.01,2013-02-16 12:53:00,
2013-02-16 06:58:00,20.7,6.7,30.36,WSW,248,0.0,0.0,54,0.00,,SKC,0.00,VWS V14.01,2013-02-16 12:58:00,
2013-02-16 07:03:00,20.7,6.7,30.36,WSW,248,0.0,0.0,54,0.00,,SKC,0.00,VWS V14.01,2013-02-16 13:03:00,
2013-02-16 07:08:00,20.8,6.8,30.36,WSW,248,0.0,0.0,54,0.00,,SKC,0.00,VWS V14.01,2013-02-16 13:08:00,
2013-02-16 07:13:00,21.0,7.0,30.36,WSW,248,0.0,0.0,54,0.00,,SKC,0.00,VWS V14.01,2013-02-16 13:13:00,
2013-02-16 07:18:00,21.2,7.2,30.36,WSW,248,0.0,0.0,54,0.00,,SKC,0.00,VWS V14.01,2013-02-16 13:18:00,
2013-02-16 07:23:00,21.2,7.2,30.39,WSW,248,0.0,0.0,54,0.00,,SKC,0.00,VWS V14.01,2013-02-16 13:23:00,
2013-02-16 07:28:00,21.4,7.3,30.39,WSW,248,0.0,0.0,54,0.00,,SKC,0.00,VWS V14.01,2013-02-16 13:28:00,
2013-02-16 07:33:00,21.7,8.1,30.39,WSW,248,0.0,0.0,55,0.00,,SKC,0.00,VWS V14.01,2013-02-16 13:33:00,
2013-02-16 07:38:00,21.7,7.7,30.39,WSW,248,0.0,0.0,54,0.00,,SKC,0.00,VWS V14.01,2013-02-16 13:38:00,
2013-02-16 07:43:00,21.9,7.8,30.39,WSW,248,0.0,0.0,54,0.00,,SKC,0.00,VWS V14.01,2013-02-16 13:43:00,
2013-02-16 07:48:00,22.1,8.0,30.39,WSW,248,0.0,0.0,54,0.00,,SKC,0.00,VWS V14.01,2013-02-16 13:48:00,
2013-02-16 07:53:00,22.3,8.2,30.39,WSW,248,0.0,0.0,54,0.00,,SKC,0.00,VWS V14.01,2013-02-16 13:53:00,
2013-02-16 07:58:00,22.5,8.3,30.39,WSW,248,0.0,0.0,54,0.00,,SKC,0.00,VWS V14.01,2013-02-16 13:58:00,
2013-02-16 08:03:00,22.6,8.5,30.39,WSW,248,0.0,0.0,54,0.00,,SKC,0.00,VWS V14.01,2013-02-16 14:03:00,
2013-02-16 08:08:00,22.8,8.7,30.39,WSW,248,0.0,0.0,54,0.00,,SKC,0.00,VWS V14.01,2013-02-16 14:08:00,
2013-02-16 08:13:00,23.0,8.9,30.39,WSW,248,0.0,0.0,54,0.00,,SKC,0.00,VWS V14.01,2013-02-16 14:13:00,
2013-02-16 08:18:00,23.2,9.0,30.39,WSW,248,0.0,0.0,54,0.00,,SKC,0.00,VWS V14.01,2013-02-16 14:18:00,
2013-02-16 08:23:00,23.9,9.7,30.39,WSW,248,0.0,0.0,54,0.00,,SKC,0.00,VWS V14.01,2013-02-16 14:23:00,
2013-02-16 08:28:00,24.4,9.8,30.39,WSW,248,0.0,0.0,53,0.00,,SKC,0.00,VWS V14.01,2013-02-16 14:28:00,
2013-02-16 08:33:00,24.3,9.6,30.39,WSW,248,0.0,0.0,53,0.00,,SKC,0.00,VWS V14.01,2013-02-16 14:33:00,
2013-02-16 08:38:00,24.3,9.6,30.39,WSW,248,0.0,0.0,53,0.00,,SKC,0.00,VWS V14.01,2013-02-16 14:38:00,
2013-02-16 08:43:00,24.4,9.8,30.39,WSW,248,0.0,0.0,53,0.00,,SKC,0.00,VWS V14.01,2013-02-16 14:43:00,
2013-02-16 08:48:00,24.8,10.1,30.39,WSW,248,0.0,0.0,53,0.00,,SKC,0.00,VWS V14.01,2013-02-16 14:48:00,
2013-02-16 08:53:00,26.1,10.9,30.39,WSW,248,0.0,0.0,52,0.00,,SKC,0.00,VWS V14.01,2013-02-16 14:53:00,
2013-02-16 08:58:00,26.8,11.1,30.39,WSW,248,0.0,0.0,51,0.00,,SKC,0.00,VWS V14.01,2013-02-16 14:58:00,
2013-02-16 09:03:00,27.7,11.5,30.39,WSW,248,0.0,0.0,50,0.00,,SKC,0.00,VWS V14.01,2013-02-16 15:03:00,
2013-02-16 09:08:00,28.8,12.0,30.41,West,270,2.7,10.7,49,0.00,,SKC,0.00,VWS V14.01,2013-02-16 15:08:00,
2013-02-16 09:13:00,29.3,11.1,30.41,West,270,2.7,10.7,46,0.00,,SKC,0.00,VWS V14.01,2013-02-16 15:13:00,
2013-02-16 09:18:00,30.0,11.8,30.41,ENE,68,4.3,17.0,46,0.00,,SKC,0.00,VWS V14.01,2013-02-16 15:18:00,
2013-02-16 09:23:00,30.4,11.6,30.41,ENE,68,4.3,17.0,45,0.00,,SKC,0.00,VWS V14.01,2013-02-16 15:23:00,
2013-02-16 09:28:00,30.7,11.9,30.41,ENE,68,4.3,17.0,45,0.00,,SKC,0.00,VWS V14.01,2013-02-16 15:28:00,
2013-02-16 09:33:00,30.7,10.9,30.41,ENE,68,4.3,17.0,43,0.00,,SKC,0.00,VWS V14.01,2013-02-16 15:33:00,
2013-02-16 09:38:00,30.7,10.4,30.39,ENE,68,4.3,17.0,42,0.00,,SKC,0.00,VWS V14.01,2013-02-16 15:38:00,
2013-02-16 09:43:00,31.1,10.7,30.39,ENE,68,4.3,17.0,42,0.00,,SKC,0.00,VWS V14.01,2013-02-16 15:43:00,
2013-02-16 09:48:00,31.3,11.4,30.39,ENE,68,4.3,17.0,43,0.00,,SKC,0.00,VWS V14.01,2013-02-16 15:48:00,
2013-02-16 09:53:00,31.1,10.7,30.41,ENE,68,4.3,17.0,42,0.00,,SKC,0.00,VWS V14.01,2013-02-16 15:53:00,
2013-02-16 09:58:00,32.4,11.9,30.41,SW,225,1.3,5.4,42,0.00,,SKC,0.00,VWS V14.01,2013-02-16 15:58:00,
2013-02-16 10:03:00,32.2,11.7,30.41,SW,225,1.3,5.4,42,0.00,,SKC,0.00,VWS V14.01,2013-02-16 16:03:00,
2013-02-16 10:08:00,32.5,12.0,30.39,SW,225,1.3,5.4,42,0.00,,SKC,0.00,VWS V14.01,2013-02-16 16:08:00,
2013-02-16 10:13:00,33.1,12.0,30.39,SW,225,1.3,5.4,41,0.00,,SKC,0.00,VWS V14.01,2013-02-16 16:13:00,
2013-02-16 10:18:00,34.3,12.5,30.39,SW,225,1.3,5.4,40,0.00,,SKC,0.00,VWS V14.01,2013-02-16 16:18:00,
2013-02-16 10:23:00,35.8,13.8,30.39,SW,225,1.3,5.4,40,0.00,,SKC,0.00,VWS V14.01,2013-02-16 16:23:00,
2013-02-16 10:28:00,36.3,13.8,30.39,SW,225,1.3,5.4,39,0.00,,SKC,0.00,VWS V14.01,2013-02-16 16:28:00,
2013-02-16 10:33:00,37.6,14.9,30.39,South,180,2.5,9.8,39,0.00,,SKC,0.00,VWS V14.01,2013-02-16 16:33:00,
2013-02-16 10:38:00,38.5,15.1,30.39,WSW,248,2.9,11.6,38,0.00,,SKC,0.00,VWS V14.01,2013-02-16 16:38:00,
2013-02-16 10:43:00,38.1,11.6,30.39,West,270,4.3,17.0,33,0.00,,SKC,0.00,VWS V14.01,2013-02-16 16:43:00,
2013-02-16 10:48:00,38.1,11.6,30.39,WSW,248,1.1,4.5,33,0.00,,SKC,0.00,VWS V14.01,2013-02-16 16:48:00,
2013-02-16 10:53:00,38.5,10.5,30.39,SE,135,2.0,8.1,31,0.00,,SKC,0.00,VWS V14.01,2013-02-16 16:53:00,
2013-02-16 10:58:00,39.0,11.7,30.39,SE,135,2.0,8.1,32,0.00,,SKC,0.00,VWS V14.01,2013-02-16 16:58:00,
2013-02-16 11:03:00,39.4,12.0,30.39,WSW,248,4.9,19.7,32,0.00,,SKC,0.00,VWS V14.01,2013-02-16 17:03:00,
2013-02-16 11:08:00,39.4,11.3,30.39,WSW,248,4.9,19.7,31,0.00,,SKC,0.00,VWS V14.01,2013-02-16 17:08:00,
2013-02-16 11:13:00,39.0,11.0,30.39,WNW,292,6.5,26.0,31,0.00,,SKC,0.00,VWS V14.01,2013-02-16 17:13:00,
2013-02-16 11:18:00,38.1,10.2,30.39,NNE,22,2.5,9.8,31,0.00,,SKC,0.00,VWS V14.01,2013-02-16 17:18:00,
2013-02-16 11:23:00,39.0,10.2,30.39,WSW,248,3.8,15.2,30,0.00,,SKC,0.00,VWS V14.01,2013-02-16 17:23:00,
2013-02-16 11:28:00,37.8,6.0,30.39,North,0,2.0,8.1,26,0.00,,SKC,0.00,VWS V14.01,2013-02-16 17:28:00,
2013-02-16 11:33:00,39.4,7.4,30.39,SW,225,2.5,9.8,26,0.00,,SKC,0.00,VWS V14.01,2013-02-16 17:33:00,
2013-02-16 11:38:00,39.2,8.9,30.39,NNW,338,3.8,15.2,28,0.00,,SKC,0.00,VWS V14.01,2013-02-16 17:38:00,
2013-02-16 11:43:00,39.4,9.0,30.39,SW,225,3.6,14.3,28,0.00,,SKC,0.00,VWS V14.01,2013-02-16 17:43:00,
2013-02-16 11:48:00,38.5,2.0,30.39,WSW,248,6.9,27.7,21,0.00,,SKC,0.00,VWS V14.01,2013-02-16 17:48:00,
2013-02-16 11:53:00,38.5,2.0,30.39,West,270,5.4,21.5,21,0.00,,SKC,0.00,VWS V14.01,2013-02-16 17:53:00,
2013-02-16 11:58:00,39.7,5.0,30.39,NW,315,2.9,11.6,23,0.00,,SKC,0.00,VWS V14.01,2013-02-16 17:58:00,
2013-02-16 12:03:00,39.9,3.2,30.39,WSW,248,2.5,9.8,21,0.00,,SKC,0.00,VWS V14.01,2013-02-16 18:03:00,
2013-02-16 12:08:00,39.6,-2.9,30.36,ENE,68,2.7,10.7,16,0.00,,SKC,0.00,VWS V14.01,2013-02-16 18:08:00,
2013-02-16 12:13:00,39.7,-0.3,30.36,ENE,68,2.7,10.7,18,0.00,,SKC,0.00,VWS V14.01,2013-02-16 18:13:00,
2013-02-16 12:18:00,39.9,-0.1,30.36,SSE,158,1.6,6.3,18,0.00,,SKC,0.00,VWS V14.01,2013-02-16 18:18:00,
2013-02-16 12:23:00,40.5,0.3,30.36,WNW,292,3.1,12.5,18,0.00,,SKC,0.00,VWS V14.01,2013-02-16 18:23:00,
2013-02-16 12:28:00,40.8,-9.6,30.36,SW,225,2.5,9.8,11,0.00,,SKC,0.00,VWS V14.01,2013-02-16 18:28:00,
2013-02-16 12:33:00,40.8,-9.6,30.36,SSW,202,1.6,6.3,11,0.00,,SKC,0.00,VWS V14.01,2013-02-16 18:33:00,
2013-02-16 12:38:00,40.5,-11.8,30.36,West,270,4.0,16.1,10,0.00,,SKC,0.00,VWS V14.01,2013-02-16 18:38:00,
2013-02-16 12:43:00,39.7,-12.4,30.36,ENE,68,3.4,13.4,10,0.00,,SKC,0.00,VWS V14.01,2013-02-16 18:43:00,
2013-02-16 12:48:00,39.6,-12.5,30.36,WSW,248,6.5,26.0,10,0.00,,SKC,0.00,VWS V14.01,2013-02-16 18:48:00,
2013-02-16 12:53:00,39.9,-12.2,30.36,WSW,248,4.0,16.1,10,0.00,,SKC,0.00,VWS V14.01,2013-02-16 18:53:00,
2013-02-16 12:58:00,39.6,-12.5,30.36,WSW,248,4.0,16.1,10,0.00,,SKC,0.00,VWS V14.01,2013-02-16 18:58:00,
2013-02-16 13:03:00,38.7,-13.2,30.36,WSW,248,4.0,16.1,10,0.00,,SKC,0.00,VWS V14.01,2013-02-16 19:03:00,
2013-02-16 13:08:00,38.8,-13.1,30.36,WSW,248,4.0,16.1,10,0.00,,SKC,0.00,VWS V14.01,2013-02-16 19:08:00,
2013-02-16 13:13:00,39.4,-12.7,30.36,WSW,248,4.0,16.1,10,0.00,,SKC,0.00,VWS V14.01,2013-02-16 19:13:00,
2013-02-16 13:18:00,39.0,-12.9,30.36,West,270,3.1,12.5,10,0.00,,SKC,0.00,VWS V14.01,2013-02-16 19:18:00,
2013-02-16 13:23:00,39.2,-12.8,30.36,WNW,292,2.0,8.1,10,0.00,,SKC,0.00,VWS V14.01,2013-02-16 19:23:00,
2013-02-16 13:28:00,39.4,-12.7,30.36,WNW,292,2.0,8.1,10,0.00,,SKC,0.00,VWS V14.01,2013-02-16 19:28:00,
2013-02-16 13:33:00,38.8,-13.1,30.36,WNW,292,2.0,8.1,10,0.00,,SKC,0.00,VWS V14.01,2013-02-16 19:33:00,
2013-02-16 13:38:00,39.4,-12.7,30.33,WNW,292,2.0,8.1,10,0.00,,SKC,0.00,VWS V14.01,2013-02-16 19:38:00,
2013-02-16 13:43:00,39.7,-12.4,30.33,WNW,292,2.0,8.1,10,0.00,,SKC,0.00,VWS V14.01,2013-02-16 19:43:00,
2013-02-16 13:48:00,40.6,-11.7,30.33,WNW,292,2.0,8.1,10,0.00,,SKC,0.00,VWS V14.01,2013-02-16 19:48:00,
2013-02-16 13:53:00,41.0,-11.4,30.33,WNW,292,2.0,8.1,10,0.00,,SKC,0.00,VWS V14.01,2013-02-16 19:53:00,
2013-02-16 13:58:00,41.7,-10.9,30.33,South,180,3.4,13.4,10,0.00,,SKC,0.00,VWS V14.01,2013-02-16 19:58:00,
2013-02-16 14:03:00,41.7,-10.9,30.33,NW,315,3.1,12.5,10,0.00,,SKC,0.00,VWS V14.01,2013-02-16 20:03:00,
2013-02-16 14:08:00,41.2,-11.3,30.30,WSW,248,5.4,21.5,10,0.00,,SKC,0.00,VWS V14.01,2013-02-16 20:08:00,
2013-02-16 14:13:00,41.4,-11.1,30.30,WSW,248,5.4,21.5,10,0.00,,SKC,0.00,VWS V14.01,2013-02-16 20:13:00,
2013-02-16 14:18:00,41.0,-11.4,30.30,WSW,248,5.4,21.5,10,0.00,,SKC,0.00,VWS V14.01,2013-02-16 20:18:00,
2013-02-16 14:23:00,41.4,-11.1,30.30,WSW,248,5.4,21.5,10,0.00,,SKC,0.00,VWS V14.01,2013-02-16 20:23:00,
2013-02-16 14:28:00,40.5,-11.8,30.30,WSW,248,5.4,21.5,10,0.00,,SKC,0.00,VWS V14.01,2013-02-16 20:28:00,
2013-02-16 14:33:00,41.2,-11.3,30.30,WSW,248,5.4,21.5,10,0.00,,SKC,0.00,VWS V14.01,2013-02-16 20:33:00,
2013-02-16 14:38:00,41.0,-11.4,30.30,WSW,248,5.4,21.5,10,0.00,,SKC,0.00,VWS V14.01,2013-02-16 20:38:00,
2013-02-16 14:43:00,40.5,-11.8,30.30,WSW,248,5.4,21.5,10,0.00,,SKC,0.00,VWS V14.01,2013-02-16 20:43:00,
2013-02-16 14:48:00,40.3,-12.0,30.30,WSW,248,5.4,21.5,10,0.00,,SKC,0.00,VWS V14.01,2013-02-16 20:48:00,
2013-02-16 14:53:00,40.1,-12.1,30.30,West,270,4.5,17.9,10,0.00,,SKC,0.00,VWS V14.01,2013-02-16 20:53:00,
2013-02-16 14:58:00,40.5,-11.8,30.30,North,0,0.0,0.0,10,0.00,,SKC,0.00,VWS V14.01,2013-02-16 20:58:00,
2013-02-16 15:03:00,40.5,-11.8,30.30,NNW,338,3.4,13.4,10,0.00,,SKC,0.00,VWS V14.01,2013-02-16 21:03:00,
2013-02-16 15:08:00,40.5,-11.8,30.30,NNW,338,3.4,13.4,10,0.00,,SKC,0.00,VWS V14.01,2013-02-16 21:08:00,
2013-02-16 15:13:00,40.5,-11.8,30.30,West,270,3.4,13.4,10,0.00,,SKC,0.00,VWS V14.01,2013-02-16 21:13:00,
2013-02-16 15:18:00,39.9,-12.2,30.30,West,270,3.4,13.4,10,0.00,,SKC,0.00,VWS V14.01,2013-02-16 21:18:00,
2013-02-16 15:23:00,40.1,-12.1,30.27,West,270,3.4,13.4,10,0.00,,SKC,0.00,VWS V14.01,2013-02-16 21:23:00,
2013-02-16 15:28:00,40.5,-11.8,30.27,West,270,3.4,13.4,10,0.00,,SKC,0.00,VWS V14.01,2013-02-16 21:28:00,
2013-02-16 15:33:00,40.6,-11.7,30.27,West,270,3.4,13.4,10,0.00,,SKC,0.00,VWS V14.01,2013-02-16 21:33:00,
2013-02-16 15:38:00,40.3,-12.0,30.27,West,270,3.4,13.4,10,0.00,,SKC,0.00,VWS V14.01,2013-02-16 21:38:00,
2013-02-16 15:43:00,39.6,-12.5,30.27,West,270,3.4,13.4,10,0.00,,SKC,0.00,VWS V14.01,2013-02-16 21:43:00,
2013-02-16 15:48:00,40.1,-12.1,30.27,West,270,3.4,13.4,10,0.00,,SKC,0.00,VWS V14.01,2013-02-16 21:48:00,
2013-02-16 15:53:00,39.6,-12.5,30.30,WSW,248,2.7,10.7,10,0.00,,SKC,0.00,VWS V14.01,2013-02-16 21:53:00,
2013-02-16 15:58:00,39.2,-12.8,30.30,WSW,248,2.7,10.7,10,0.00,,SKC,0.00,VWS V14.01,2013-02-16 21:58:00,
2013-02-16 16:03:00,39.4,-12.7,30.30,WSW,248,2.7,10.7,10,0.00,,SKC,0.00,VWS V14.01,2013-02-16 22:03:00,
2013-02-16 16:08:00,39.4,-12.7,30.30,WSW,248,2.7,10.7,10,0.00,,SKC,17.81,VWS V14.01,2013-02-16 22:08:00,
2013-02-16 16:13:00,39.0,-12.9,30.30,WSW,248,2.7,10.7,10,0.00,,SKC,17.81,VWS V14.01,2013-02-16 22:13:00,
2013-02-16 16:18:00,38.8,-13.1,30.30,WSW,248,2.7,10.7,10,0.00,,SKC,17.81,VWS V14.01,2013-02-16 22:18:00,
2013-02-16 16:23:00,38.8,-13.1,30.30,WSW,248,2.7,10.7,10,0.00,,SKC,17.81,VWS V14.01,2013-02-16 22:23:00,
2013-02-16 16:28:00,38.8,-13.1,30.30,WSW,248,2.7,10.7,10,0.00,,SKC,17.81,VWS V14.01,2013-02-16 22:28:00,
2013-02-16 16:33:00,38.1,-13.6,30.30,WSW,248,2.7,10.7,10,0.00,,SKC,17.81,VWS V14.01,2013-02-16 22:33:00,
2013-02-16 16:38:00,37.9,-13.8,30.30,WSW,248,2.7,10.7,10,0.00,,SKC,17.81,VWS V14.01,2013-02-16 22:38:00,
2013-02-16 16:43:00,37.6,-14.1,30.30,WSW,248,2.7,10.7,10,0.00,,SKC,17.81,VWS V14.01,2013-02-16 22:43:00,
2013-02-16 16:48:00,37.4,-14.2,30.30,SW,225,2.7,10.7,10,0.00,,SKC,17.81,VWS V14.01,2013-02-16 22:48:00,
2013-02-16 16:53:00,37.2,-12.5,30.30,SW,225,2.7,10.7,11,0.00,,SKC,17.81,VWS V14.01,2013-02-16 22:53:00,
2013-02-16 16:58:00,36.9,-12.7,30.30,SW,225,2.7,10.7,11,0.00,,SKC,17.81,VWS V14.01,2013-02-16 22:58:00,
2013-02-16 17:03:00,36.7,-12.9,30.30,SW,225,2.7,10.7,11,0.00,,SKC,17.81,VWS V14.01,2013-02-16 23:03:00,
2013-02-16 17:08:00,36.5,-13.0,30.27,SW,225,2.7,10.7,11,0.00,,SKC,17.81,VWS V14.01,2013-02-16 23:08:00,
2013-02-16 17:13:00,36.3,-13.2,30.27,SW,225,2.7,10.7,11,0.00,,SKC,17.81,VWS V14.01,2013-02-16 23:13:00,
2013-02-16 17:18:00,35.8,-13.6,30.27,SW,225,2.7,10.7,11,0.00,,SKC,17.81,VWS V14.01,2013-02-16 23:18:00,
2013-02-16 17:23:00,35.4,-13.9,30.30,SW,225,2.7,10.7,11,0.00,,SKC,17.81,VWS V14.01,2013-02-16 23:23:00,
2013-02-16 17:28:00,35.1,-14.2,30.30,SW,225,2.7,10.7,11,0.00,,SKC,17.81,VWS V14.01,2013-02-16 23:28:00,
2013-02-16 17:33:00,34.7,-14.4,30.30,SW,225,2.7,10.7,11,0.00,,SKC,17.81,VWS V14.01,2013-02-16 23:33:00,
2013-02-16 17:38:00,34.3,-14.7,30.33,SW,225,2.7,10.7,11,0.00,,SKC,17.81,VWS V14.01,2013-02-16 23:38:00,
2013-02-16 17:43:00,34.2,-14.9,30.33,SW,225,2.7,10.7,11,0.00,,SKC,17.81,VWS V14.01,2013-02-16 23:43:00,
2013-02-16 17:49:00,34.0,-15.0,30.33,SW,225,2.7,10.7,11,0.00,,SKC,17.81,VWS V14.01,2013-02-16 23:49:00,
2013-02-16 17:54:00,33.6,-13.6,30.27,SW,225,2.7,10.7,12,0.00,,SKC,17.81,VWS V14.01,2013-02-16 23:54:00,
2013-02-16 17:59:00,33.3,-13.9,30.27,SW,225,2.7,10.7,12,0.00,,SKC,17.81,VWS V14.01,2013-02-16 23:59:00,
2013-02-16 18:04:00,33.1,-14.0,30.27,SW,225,2.7,10.7,12,0.00,,SKC,17.81,VWS V14.01,2013-02-17 00:04:00,
2013-02-16 18:09:00,32.5,-14.4,30.30,SW,225,2.7,10.7,12,0.00,,SKC,17.81,VWS V14.01,2013-02-17 00:09:00,
2013-02-16 18:14:00,32.2,-14.7,30.30,SW,225,2.7,10.7,12,0.00,,SKC,17.81,VWS V14.01,2013-02-17 00:14:00,
2013-02-16 18:19:00,32.0,-14.9,30.30,SW,225,2.7,10.7,12,0.00,,SKC,17.81,VWS V14.01,2013-02-17 00:19:00,
2013-02-16 18:23:00,31.5,-15.3,30.30,SW,225,2.7,10.7,12,0.00,,SKC,17.81,VWS V14.01,2013-02-17 00:23:00,
2013-02-16 18:29:00,30.7,-15.9,30.30,SW,225,2.7,10.7,12,0.00,,SKC,17.81,VWS V14.01,2013-02-17 00:29:00,
2013-02-16 18:34:00,30.2,-16.3,30.30,SW,225,2.7,10.7,12,0.00,,SKC,17.81,VWS V14.01,2013-02-17 00:34:00,
2013-02-16 18:39:00,29.5,-16.9,30.30,SW,225,2.7,10.7,12,0.00,,SKC,17.81,VWS V14.01,2013-02-17 00:39:00,
2013-02-16 18:44:00,28.9,-17.3,30.30,SW,225,2.7,10.7,12,0.00,,SKC,17.81,VWS V14.01,2013-02-17 00:44:00,
2013-02-16 18:49:00,28.8,-17.4,30.30,SW,225,2.7,10.7,12,0.00,,SKC,17.81,VWS V14.01,2013-02-17 00:49:00,
2013-02-16 18:54:00,28.4,-17.7,30.30,SW,225,2.7,10.7,12,0.00,,SKC,17.81,VWS V14.01,2013-02-17 00:54:00,
2013-02-16 18:59:00,27.9,-18.2,30.30,SW,225,2.7,10.7,12,0.00,,SKC,17.81,VWS V14.01,2013-02-17 00:59:00,
2013-02-16 19:04:00,27.7,-18.3,30.30,SW,225,2.7,10.7,12,0.00,,SKC,17.81,VWS V14.01,2013-02-17 01:04:00,
2013-02-16 19:09:00,27.3,-18.6,30.30,SW,225,2.7,10.7,12,0.00,,SKC,17.81,VWS V14.01,2013-02-17 01:09:00,
2013-02-16 19:14:00,26.8,-19.0,30.30,SW,225,2.7,10.7,12,0.00,,SKC,17.81,VWS V14.01,2013-02-17 01:14:00,
2013-02-16 19:19:00,26.2,-17.9,30.30,SW,225,2.7,10.7,13,0.00,,SKC,17.81,VWS V14.01,2013-02-17 01:19:00,
2013-02-16 19:24:00,26.1,-18.0,30.27,SW,225,2.7,10.7,13,0.00,,SKC,17.81,VWS V14.01,2013-02-17 01:24:00,
2013-02-16 19:29:00,25.7,-18.3,30.27,SW,225,2.7,10.7,13,0.00,,SKC,17.81,VWS V14.01,2013-02-17 01:29:00,
2013-02-16 19:34:00,25.5,-18.5,30.27,SW,225,2.7,10.7,13,0.00,,SKC,17.81,VWS V14.01,2013-02-17 01:34:00,
2013-02-16 19:39:00,25.3,-18.6,30.30,SW,225,2.7,10.7,13,0.00,,SKC,17.81,VWS V14.01,2013-02-17 01:39:00,
2013-02-16 19:44:00,25.2,-18.8,30.30,SW,225,2.7,10.7,13,0.00,,SKC,17.81,VWS V14.01,2013-02-17 01:44:00,
2013-02-16 19:49:00,25.0,-18.9,30.30,SW,225,2.7,10.7,13,0.00,,SKC,17.81,VWS V14.01,2013-02-17 01:49:00,
2013-02-16 19:54:00,25.3,-9.1,30.30,SW,225,2.7,10.7,21,0.00,,SKC,17.81,VWS V14.01,2013-02-17 01:54:00,
2013-02-16 19:59:00,25.5,-6.2,30.30,SW,225,2.7,10.7,24,0.00,,SKC,17.81,VWS V14.01,2013-02-17 01:59:00,
2013-02-16 20:04:00,25.7,-4.4,30.30,SW,225,2.7,10.7,26,0.00,,SKC,17.81,VWS V14.01,2013-02-17 02:04:00,
2013-02-16 20:09:00,25.5,-2.3,30.30,SW,225,2.7,10.7,29,0.00,,SKC,17.81,VWS V14.01,2013-02-17 02:09:00,
2013-02-16 20:14:00,25.0,-0.7,30.30,SW,225,2.7,10.7,32,0.00,,SKC,17.81,VWS V14.01,2013-02-17 02:14:00,
2013-02-16 20:19:00,24.6,-1.0,30.30,SW,225,2.7,10.7,32,0.00,,SKC,17.81,VWS V14.01,2013-02-17 02:19:00,
2013-02-16 20:24:00,25.2,-0.5,30.30,SW,225,2.7,10.7,32,0.00,,SKC,17.81,VWS V14.01,2013-02-17 02:24:00,
2013-02-16 20:29:00,25.0,-0.7,30.30,SW,225,2.7,10.7,32,0.00,,SKC,17.81,VWS V14.01,2013-02-17 02:29:00,
2013-02-16 20:34:00,25.0,-0.7,30.30,SW,225,2.7,10.7,32,0.00,,SKC,17.81,VWS V14.01,2013-02-17 02:34:00,
2013-02-16 20:39:00,24.8,-0.2,30.30,SW,225,2.7,10.7,33,0.00,,SKC,17.81,VWS V14.01,2013-02-17 02:39:00,
2013-02-16 20:44:00,24.8,0.4,30.30,SW,225,2.7,10.7,34,0.00,,SKC,17.81,VWS V14.01,2013-02-17 02:44:00,
2013-02-16 20:49:00,24.4,0.7,30.30,SW,225,2.7,10.7,35,0.00,,SKC,17.81,VWS V14.01,2013-02-17 02:49:00,
2013-02-16 20:54:00,24.1,0.4,30.30,SW,225,2.7,10.7,35,0.00,,SKC,17.81,VWS V14.01,2013-02-17 02:54:00,
2013-02-16 20:59:00,23.9,0.2,30.30,SW,225,2.7,10.7,35,0.00,,SKC,17.81,VWS V14.01,2013-02-17 02:59:00,
2013-02-16 21:04:00,23.9,0.2,30.30,SW,225,2.7,10.7,35,0.00,,SKC,17.81,VWS V14.01,2013-02-17 03:04:00,
2013-02-16 21:09:00,23.5,-0.1,30.30,SW,225,2.7,10.7,35,0.00,,SKC,17.81,VWS V14.01,2013-02-17 03:09:00,
2013-02-16 21:14:00,23.4,-0.2,30.30,SW,225,2.7,10.7,35,0.00,,SKC,17.81,VWS V14.01,2013-02-17 03:14:00,
2013-02-16 21:19:00,23.2,-0.4,30.30,SW,225,2.7,10.7,35,0.00,,SKC,17.81,VWS V14.01,2013-02-17 03:19:00,
2013-02-16 21:24:00,23.4,-0.2,30.33,SW,225,2.7,10.7,35,0.00,,SKC,17.81,VWS V14.01,2013-02-17 03:24:00,
2013-02-16 21:29:00,23.2,-0.4,30.33,SW,225,2.7,10.7,35,0.00,,SKC,17.81,VWS V14.01,2013-02-17 03:29:00,
2013-02-16 21:34:00,23.2,0.2,30.33,SW,225,2.7,10.7,36,0.00,,SKC,17.81,VWS V14.01,2013-02-17 03:34:00,
2013-02-16 21:39:00,22.8,0.5,30.30,SW,225,2.7,10.7,37,0.00,,SKC,17.81,VWS V14.01,2013-02-17 03:39:00,
2013-02-16 21:44:00,22.6,0.3,30.30,SW,225,2.7,10.7,37,0.00,,SKC,17.81,VWS V14.01,2013-02-17 03:44:00,
2013-02-16 21:49:00,22.5,0.7,30.30,SW,225,2.7,10.7,38,0.00,,SKC,17.81,VWS V14.01,2013-02-17 03:49:00,
2013-02-16 21:54:00,22.3,0.5,30.30,SW,225,2.7,10.7,38,0.00,,SKC,17.81,VWS V14.01,2013-02-17 03:54:00,
2013-02-16 21:59:00,22.3,1.1,30.30,SW,225,2.7,10.7,39,0.00,,SKC,17.81,VWS V14.01,2013-02-17 03:59:00,
2013-02-16 22:04:00,22.1,0.9,30.30,SW,225,2.7,10.7,39,0.00,,SKC,17.81,VWS V14.01,2013-02-17 04:04:00,
2013-02-16 22:09:00,22.1,1.5,30.30,SW,225,2.7,10.7,40,0.00,,SKC,17.81,VWS V14.01,2013-02-17 04:09:00,
2013-02-16 22:14:00,21.9,1.3,30.30,SW,225,2.7,10.7,40,0.00,,SKC,17.81,VWS V14.01,2013-02-17 04:14:00,
2013-02-16 22:19:00,21.9,1.8,30.30,SW,225,2.7,10.7,41,0.00,,SKC,17.81,VWS V14.01,2013-02-17 04:19:00,
2013-02-16 22:24:00,21.9,1.8,30.30,SW,225,2.7,10.7,41,0.00,,SKC,17.81,VWS V14.01,2013-02-17 04:24:00,
2013-02-16 22:29:00,21.9,2.4,30.30,SW,225,2.7,10.7,42,0.00,,SKC,17.81,VWS V14.01,2013-02-17 04:29:00,
2013-02-16 22:34:00,21.9,2.4,30.30,SW,225,2.7,10.7,42,0.00,,SKC,17.81,VWS V14.01,2013-02-17 04:34:00,
2013-02-16 22:39:00,21.7,2.2,30.30,SW,225,2.7,10.7,42,0.00,,SKC,17.81,VWS V14.01,2013-02-17 04:39:00,
2013-02-16 22:44:00,21.7,2.7,30.30,SW,225,2.7,10.7,43,0.00,,SKC,17.81,VWS V14.01,2013-02-17 04:44:00,
2013-02-16 22:49:00,21.6,2.5,30.30,SW,225,2.7,10.7,43,0.00,,SKC,17.81,VWS V14.01,2013-02-17 04:49:00,
2013-02-16 22:54:00,21.6,2.5,30.30,SW,225,2.7,10.7,43,0.00,,SKC,17.81,VWS V14.01,2013-02-17 04:54:00,
2013-02-16 22:59:00,22.1,3.0,30.30,SW,225,2.7,10.7,43,0.00,,SKC,17.81,VWS V14.01,2013-02-17 04:59:00,
2013-02-16 23:00:00,22.1,3.0,30.30,SW,225,2.7,10.7,43,0.00,,SKC,17.81,VWS V14.01,2013-02-17 05:00:00,
2013-02-16 23:05:00,21.9,2.9,30.30,SW,225,2.7,10.7,43,0.00,,SKC,17.81,VWS V14.01,2013-02-17 05:05:00,
2013-02-16 23:10:00,21.7,3.2,30.30,SW,225,2.7,10.7,44,0.00,,SKC,17.81,VWS V14.01,2013-02-17 05:10:00,
2013-02-16 23:15:00,21.4,2.9,30.30,SW,225,2.7,10.7,44,0.00,,SKC,17.81,VWS V14.01,2013-02-17 05:15:00,
2013-02-16 23:20:00,21.2,2.7,30.30,SW,225,2.7,10.7,44,0.00,,SKC,17.81,VWS V14.01,2013-02-17 05:20:00,
2013-02-16 23:25:00,21.2,2.7,30.30,SW,225,2.7,10.7,44,0.00,,SKC,17.81,VWS V14.01,2013-02-17 05:25:00,
2013-02-16 23:30:00,21.0,2.5,30.30,SW,225,2.7,10.7,44,0.00,,SKC,17.81,VWS V14.01,2013-02-17 05:30:00,
2013-02-16 23:35:00,20.8,2.9,30.27,SW,225,2.7,10.7,45,0.00,,SKC,17.81,VWS V14.01,2013-02-17 05:35:00,
2013-02-16 23:40:00,20.8,2.9,30.27,SW,225,2.7,10.7,45,0.00,,SKC,17.81,VWS V14.01,2013-02-17 05:40:00,
2013-02-16 23:45:00,21.2,3.2,30.27,SW,225,2.7,10.7,45,0.00,,SKC,17.81,VWS V14.01,2013-02-17 05:45:00,
2013-02-16 23:50:00,21.0,3.5,30.30,SW,225,2.7,10.7,46,0.00,,SKC,17.81,VWS V14.01,2013-02-17 05:50:00,
2013-02-16 23:55:00,20.8,3.3,30.30,SW,225,2.7,10.7,46,0.00,,SKC,17.81,VWS V14.01,2013-02-17 05:55:00,